Time,TemperatureF,DewpointF,PressureIn,WindDirection,WindDirectionDegrees,WindSpeedMPH,WindSpeedGustMPH,Humidity,HourlyPrecipIn,Conditions,Clouds,dailyrainin,SoftwareType,DateUTC
2013-09-17 00:14:00,61.0,49.0,-100.00,North,10,13.0,18.0,66,-99.99,,,-99.99,,2013-09-17 04:14:00,
2013-09-17 00:44:00,60.0,49.0,-100.00,North,10,13.0,18.0,66,-99.99,,,-99.99,,2013-09-17 04:44:00,
2013-09-17 01:12:00,59.0,48.0,-100.00,North,10,13.0,18.0,67,-99.99,,,-99.99,,2013-09-17 05:12:00,
2013-09-17 01:42:00,58.0,47.0,-100.00,North,10,13.0,18.0,67,-99.99,,,-99.99,,2013-09-17 05:42:00,
2013-09-17 02:12:00,57.0,47.0,-100.00,North,10,13.0,18.0,68,-99.99,,,-99.99,,2013-09-17 06:12:00,
2013-09-17 02:41:00,56.0,45.0,-100.00,North,10,16.0,18.0,66,-99.99,,,-99.99,,2013-09-17 06:41:00,
2013-09-17 03:11:00,56.0,45.0,-100.00,NNE,20,16.0,27.0,66,-99.99,,,-99.99,,2013-09-17 07:11:00,
2013-09-17 03:42:00,55.0,43.0,-100.00,NNE,30,20.0,27.0,64,-99.99,,,-99.99,,2013-09-17 07:42:00,
2013-09-17 04:12:00,54.0,41.0,-100.00,NE,40,18.0,25.0,60,-99.99,,,-99.99,,2013-09-17 08:12:00,
2013-09-17 04:42:00,54.0,40.0,-100.00,NNE,30,18.0,22.0,60,-99.99,,,-99.99,,2013-09-17 08:42:00,
2013-09-17 05:11:00,53.0,40.0,-100.00,NNE,20,18.0,22.0,60,-99.99,,,-99.99,,2013-09-17 09:11:00,
2013-09-17 05:42:00,53.0,40.0,-100.00,NE,40,18.0,25.0,62,-99.99,,,-99.99,,2013-09-17 09:42:00,
2013-09-17 06:12:00,53.0,41.0,-100.00,NE,40,20.0,27.0,63,-99.99,,,-99.99,,2013-09-17 10:12:00,
2013-09-17 06:42:00,52.0,40.0,-100.00,NE,40,20.0,25.0,63,-99.99,,,-99.99,,2013-09-17 10:42:00,
2013-09-17 07:11:00,52.0,40.0,-100.00,NNE,20,20.0,27.0,64,-99.99,,,-99.99,,2013-09-17 11:11:00,
2013-09-17 07:42:00,51.0,40.0,-100.00,NNE,30,20.0,29.0,65,-99.99,,,-99.99,,2013-09-17 11:42:00,
2013-09-17 08:11:00,51.0,40.0,-100.00,NNE,20,18.0,25.0,65,-99.99,,,-99.99,,2013-09-17 12:11:00,
2013-09-17 08:42:00,51.0,40.0,-100.00,North,10,18.0,22.0,66,-99.99,,,-99.99,,2013-09-17 12:42:00,
2013-09-17 09:11:00,52.0,40.0,-100.00,NNE,30,18.0,25.0,62,-99.99,,,-99.99,,2013-09-17 13:11:00,
2013-09-17 09:42:00,53.0,40.0,-100.00,NNE,30,18.0,25.0,60,-99.99,,,-99.99,,2013-09-17 13:42:00,
2013-09-17 10:11:00,53.0,38.0,-100.00,NE,40,18.0,25.0,56,-99.99,,,-99.99,,2013-09-17 14:11:00,
2013-09-17 10:42:00,54.0,39.0,-100.00,NE,50,16.0,22.0,56,-99.99,,,-99.99,,2013-09-17 14:42:00,
2013-09-17 11:11:00,54.0,38.0,-100.00,NE,50,18.0,22.0,54,-99.99,,,-99.99,,2013-09-17 15:11:00,
2013-09-17 11:44:00,55.0,38.0,-100.00,ENE,60,16.0,18.0,54,-99.99,,,-99.99,,2013-09-17 15:44:00,
2013-09-17 12:12:00,55.0,38.0,-100.00,ENE,60,11.0,16.0,53,-99.99,,,-99.99,,2013-09-17 16:12:00,
2013-09-17 12:42:00,55.0,38.0,-100.00,ENE,70,9.0,13.0,51,-99.99,,,-99.99,,2013-09-17 16:42:00,
2013-09-17 13:12:00,56.0,37.0,-100.00,ENE,70,7.0,11.0,48,-99.99,,,-99.99,,2013-09-17 17:12:00,
2013-09-17 14:42:00,58.0,39.0,-100.00,ESE,120,7.0,13.0,49,-99.99,,,-99.99,,2013-09-17 18:42:00,
2013-09-17 15:42:00,59.0,40.0,-100.00,ESE,120,7.0,9.0,49,-99.99,,,-99.99,,2013-09-17 19:42:00,
2013-09-17 16:42:00,60.0,40.0,-100.00,SE,130,2.0,7.0,46,-99.99,,,-99.99,,2013-09-17 20:42:00,
2013-09-17 17:12:00,61.0,40.0,-100.00,East,100,4.0,7.0,46,-99.99,,,-99.99,,2013-09-17 21:12:00,
2013-09-17 17:44:00,61.0,41.0,-100.00,ESE,120,4.0,7.0,47,-99.99,,,-99.99,,2013-09-17 21:44:00,
2013-09-17 18:13:00,62.0,42.0,-100.00,ESE,120,4.0,7.0,47,-99.99,,,-99.99,,2013-09-17 22:13:00,
2013-09-17 18:43:00,62.0,41.0,-100.00,ESE,110,4.0,4.0,45,-99.99,,,-99.99,,2013-09-17 22:43:00,
2013-09-17 19:12:00,62.0,41.0,-100.00,ESE,110,4.0,7.0,46,-99.99,,,-99.99,,2013-09-17 23:12:00,
2013-09-17 20:11:00,61.0,42.0,-100.00,ESE,120,4.0,7.0,49,-99.99,,,-99.99,,2013-09-18 00:11:00,
2013-09-17 20:42:00,62.0,43.0,-100.00,SE,130,4.0,9.0,49,-99.99,,,-99.99,,2013-09-18 00:42:00,
2013-09-17 21:11:00,62.0,42.0,-100.00,ESE,110,4.0,9.0,47,-99.99,,,-99.99,,2013-09-18 01:11:00,
2013-09-17 21:42:00,62.0,43.0,-100.00,SE,130,4.0,7.0,50,-99.99,,,-99.99,,2013-09-18 01:42:00,
2013-09-17 22:11:00,62.0,42.0,-100.00,SE,130,4.0,7.0,49,-99.99,,,-99.99,,2013-09-18 02:11:00,
2013-09-17 22:42:00,61.0,44.0,-100.00,SSE,160,4.0,7.0,54,-99.99,,,-99.99,,2013-09-18 02:42:00,
2013-09-17 23:11:00,60.0,46.0,-100.00,SW,220,2.0,4.0,58,-99.99,,,-99.99,,2013-09-18 03:11:00,
2013-09-17 23:44:00,61.0,49.0,-100.00,NW,310,2.0,4.0,64,-99.99,,,-99.99,,2013-09-18 03:44:00,